Time,TemperatureF,DewpointF,PressureIn,WindDirection,WindDirectionDegrees,WindSpeedMPH,WindSpeedGustMPH,Humidity,HourlyPrecipIn,Conditions,Clouds,dailyrainin,SoftwareType,DateUTC
2013-04-19 00:01:00,52.2,42.8,30.18,NNW,348,0.0,0.0,70,0.00,,,0.00,WUHU216DAVISVP2,2013-04-19 07:01:00,
2013-04-19 00:06:00,52.0,43.4,30.18,NNW,348,0.0,0.0,72,0.00,,,0.00,WUHU216DAVISVP2,2013-04-19 07:06:00,
2013-04-19 00:11:00,52.4,43.3,30.18,NNW,348,0.0,2.0,71,0.00,,,0.00,WUHU216DAVISVP2,2013-04-19 07:11:00,
2013-04-19 00:16:00,52.5,43.0,30.18,NNW,348,0.0,2.0,70,0.00,,,0.00,WUHU216DAVISVP2,2013-04-19 07:16:00,
2013-04-19 00:21:00,52.3,42.8,30.18,NNW,348,0.0,0.0,70,0.00,,,0.00,WUHU216DAVISVP2,2013-04-19 07:21:00,
2013-04-19 00:26:00,51.9,42.5,30.18,NNW,348,0.0,0.0,70,0.00,,,0.00,WUHU216DAVISVP2,2013-04-19 07:26:00,
2013-04-19 00:31:00,52.2,43.2,30.18,NNW,348,0.0,0.0,71,0.00,,,0.00,WUHU216DAVISVP2,2013-04-19 07:31:00,
2013-04-19 00:36:00,52.3,43.3,30.19,NNW,348,0.0,0.0,71,0.00,,,0.00,WUHU216DAVISVP2,2013-04-19 07:36:00,
2013-04-19 00:41:00,52.2,42.8,30.19,NNW,348,0.0,2.0,70,0.00,,,0.00,WUHU216DAVISVP2,2013-04-19 07:41:00,
2013-04-19 00:46:00,52.5,42.4,30.19,NNW,348,0.0,2.0,68,0.00,,,0.00,WUHU216DAVISVP2,2013-04-19 07:46:00,
2013-04-19 00:51:00,52.1,42.4,30.19,NNW,348,0.0,0.0,69,0.00,,,0.00,WUHU216DAVISVP2,2013-04-19 07:51:00,
2013-04-19 00:56:00,51.7,42.0,30.19,NNW,348,0.0,0.0,69,0.00,,,0.00,WUHU216DAVISVP2,2013-04-19 07:56:00,
2013-04-19 01:01:00,50.8,42.2,30.19,NNW,348,0.0,0.0,72,0.00,,,0.00,WUHU216DAVISVP2,2013-04-19 08:01:00,
2013-04-19 01:06:00,50.1,41.9,30.19,NNW,348,0.0,0.0,73,0.00,,,0.00,WUHU216DAVISVP2,2013-04-19 08:06:00,
2013-04-19 01:11:00,49.4,41.9,30.20,NNW,348,0.0,0.0,75,0.00,,,0.00,WUHU216DAVISVP2,2013-04-19 08:11:00,
2013-04-19 01:16:00,48.8,42.0,30.19,NNW,348,0.0,0.0,77,0.00,,,0.00,WUHU216DAVISVP2,2013-04-19 08:16:00,
2013-04-19 01:21:00,48.7,41.9,30.19,NNW,348,0.0,0.0,77,0.00,,,0.00,WUHU216DAVISVP2,2013-04-19 08:21:00,
2013-04-19 01:26:00,48.5,42.0,30.19,NNW,348,0.0,0.0,78,0.00,,,0.00,WUHU216DAVISVP2,2013-04-19 08:26:00,
2013-04-19 01:31:00,48.3,41.8,30.19,NNW,348,0.0,0.0,78,0.00,,,0.00,WUHU216DAVISVP2,2013-04-19 08:31:00,
2013-04-19 01:36:00,48.0,41.8,30.19,NNW,348,0.0,0.0,79,0.00,,,0.00,WUHU216DAVISVP2,2013-04-19 08:36:00,
2013-04-19 01:41:00,48.1,41.9,30.19,NNW,348,0.0,0.0,79,0.00,,,0.00,WUHU216DAVISVP2,2013-04-19 08:41:00,
2013-04-19 01:46:00,47.9,41.7,30.19,NNW,348,0.0,0.0,79,0.00,,,0.00,WUHU216DAVISVP2,2013-04-19 08:46:00,
2013-04-19 01:51:00,47.9,41.7,30.19,NNW,348,0.0,0.0,79,0.00,,,0.00,WUHU216DAVISVP2,2013-04-19 08:51:00,
2013-04-19 01:56:00,47.8,41.3,30.19,NNW,348,0.0,0.0,78,0.00,,,0.00,WUHU216DAVISVP2,2013-04-19 08:56:00,
2013-04-19 02:01:00,48.2,41.7,30.19,NNW,348,0.0,0.0,78,0.00,,,0.00,WUHU216DAVISVP2,2013-04-19 09:01:00,
2013-04-19 02:06:00,48.5,41.7,30.18,NNW,348,0.0,0.0,77,0.00,,,0.00,WUHU216DAVISVP2,2013-04-19 09:06:00,
2013-04-19 02:11:00,48.5,41.3,30.18,NNW,348,0.0,0.0,76,0.00,,,0.00,WUHU216DAVISVP2,2013-04-19 09:11:00,
2013-04-19 02:16:00,48.8,41.9,30.18,NNW,348,0.0,0.0,77,0.00,,,0.00,WUHU216DAVISVP2,2013-04-19 09:16:00,
2013-04-19 02:21:00,49.0,42.1,30.18,NNW,348,0.0,0.0,77,0.00,,,0.00,WUHU216DAVISVP2,2013-04-19 09:21:00,
2013-04-19 02:26:00,48.8,42.0,30.18,NNW,348,0.0,0.0,77,0.00,,,0.00,WUHU216DAVISVP2,2013-04-19 09:26:00,
2013-04-19 02:31:00,48.7,41.9,30.18,NNW,348,0.0,0.0,77,0.00,,,0.00,WUHU216DAVISVP2,2013-04-19 09:31:00,
2013-04-19 02:36:00,48.5,42.0,30.18,NNW,348,0.0,0.0,78,0.00,,,0.00,WUHU216DAVISVP2,2013-04-19 09:36:00,
2013-04-19 02:41:00,48.7,42.2,30.18,NNW,348,0.0,0.0,78,0.00,,,0.00,WUHU216DAVISVP2,2013-04-19 09:41:00,
2013-04-19 02:46:00,48.0,41.1,30.18,NNW,348,0.0,0.0,77,0.00,,,0.00,WUHU216DAVISVP2,2013-04-19 09:46:00,
2013-04-19 02:51:00,47.4,40.9,30.18,NNW,348,0.0,0.0,78,0.00,,,0.00,WUHU216DAVISVP2,2013-04-19 09:51:00,
2013-04-19 02:56:00,47.4,41.3,30.18,NNW,348,0.0,0.0,79,0.00,,,0.00,WUHU216DAVISVP2,2013-04-19 09:56:00,
2013-04-19 03:01:00,47.2,41.4,30.18,NNW,348,0.0,0.0,80,0.00,,,0.00,WUHU216DAVISVP2,2013-04-19 10:01:00,
2013-04-19 03:06:00,47.0,41.5,30.18,NNW,348,0.0,0.0,81,0.00,,,0.00,WUHU216DAVISVP2,2013-04-19 10:06:00,
2013-04-19 03:11:00,46.8,41.3,30.18,NNW,348,0.0,0.0,81,0.00,,,0.00,WUHU216DAVISVP2,2013-04-19 10:11:00,
2013-04-19 03:16:00,46.3,40.8,30.18,NNW,348,0.0,0.0,81,0.00,,,0.00,WUHU216DAVISVP2,2013-04-19 10:16:00,
2013-04-19 03:21:00,46.1,40.9,30.18,NNW,348,0.0,0.0,82,0.00,,,0.00,WUHU216DAVISVP2,2013-04-19 10:21:00,
2013-04-19 03:26:00,45.6,40.7,30.18,NNW,348,0.0,0.0,83,0.00,,,0.00,WUHU216DAVISVP2,2013-04-19 10:26:00,
2013-04-19 03:31:00,45.3,40.7,30.18,NNW,348,0.0,0.0,84,0.00,,,0.00,WUHU216DAVISVP2,2013-04-19 10:31:00,
2013-04-19 03:36:00,45.0,40.5,30.18,NNW,348,0.0,0.0,84,0.00,,,0.00,WUHU216DAVISVP2,2013-04-19 10:36:00,
2013-04-19 03:41:00,44.8,40.6,30.19,NNW,348,0.0,1.0,85,0.00,,,0.00,WUHU216DAVISVP2,2013-04-19 10:41:00,
2013-04-19 03:46:00,44.7,40.7,30.19,NNW,348,0.0,1.0,86,0.00,,,0.00,WUHU216DAVISVP2,2013-04-19 10:46:00,
2013-04-19 03:51:00,44.7,40.7,30.19,NNW,348,0.0,1.0,86,0.00,,,0.00,WUHU216DAVISVP2,2013-04-19 10:51:00,
2013-04-19 03:56:00,44.7,41.0,30.19,NNW,348,0.0,0.0,87,0.00,,,0.00,WUHU216DAVISVP2,2013-04-19 10:56:00,
2013-04-19 04:01:00,44.7,40.7,30.19,NNW,348,0.0,0.0,86,0.00,,,0.00,WUHU216DAVISVP2,2013-04-19 11:01:00,
2013-04-19 04:06:00,44.7,40.7,30.19,NNW,348,0.0,0.0,86,0.00,,,0.00,WUHU216DAVISVP2,2013-04-19 11:06:00,
2013-04-19 04:11:00,44.5,40.6,30.19,NNW,348,0.0,0.0,86,0.00,,,0.00,WUHU216DAVISVP2,2013-04-19 11:11:00,
2013-04-19 04:16:00,44.4,40.7,30.19,NNW,348,0.0,0.0,87,0.00,,,0.00,WUHU216DAVISVP2,2013-04-19 11:16:00,
2013-04-19 04:21:00,44.3,40.6,30.19,NNW,348,0.0,0.0,87,0.00,,,0.00,WUHU216DAVISVP2,2013-04-19 11:21:00,
2013-04-19 04:26:00,44.4,40.8,30.19,NNW,348,0.0,0.0,87,0.00,,,0.00,WUHU216DAVISVP2,2013-04-19 11:26:00,
2013-04-19 04:31:00,44.5,40.9,30.19,NNW,348,0.0,0.0,87,0.00,,,0.00,WUHU216DAVISVP2,2013-04-19 11:31:00,
2013-04-19 04:36:00,44.5,40.9,30.19,NNW,348,0.0,0.0,87,0.00,,,0.00,WUHU216DAVISVP2,2013-04-19 11:36:00,
2013-04-19 04:41:00,44.2,40.6,30.19,NNW,348,0.0,0.0,87,0.00,,,0.00,WUHU216DAVISVP2,2013-04-19 11:41:00,
2013-04-19 04:46:00,43.9,40.3,30.19,NNW,348,0.0,0.0,87,0.00,,,0.00,WUHU216DAVISVP2,2013-04-19 11:46:00,
2013-04-19 04:51:00,43.4,39.5,30.19,NNW,348,0.0,1.0,86,0.00,,,0.00,WUHU216DAVISVP2,2013-04-19 11:51:00,
2013-04-19 04:56:00,43.3,39.7,30.19,NNW,348,0.0,1.0,87,0.00,,,0.00,WUHU216DAVISVP2,2013-04-19 11:56:00,
2013-04-19 05:01:00,43.4,40.1,30.19,NNW,348,0.0,0.0,88,0.00,,,0.00,WUHU216DAVISVP2,2013-04-19 12:01:00,
2013-04-19 05:06:00,43.3,40.0,30.19,NNW,348,0.0,0.0,88,0.00,,,0.00,WUHU216DAVISVP2,2013-04-19 12:06:00,
2013-04-19 05:11:00,43.3,40.0,30.19,NNW,348,0.0,0.0,88,0.00,,,0.00,WUHU216DAVISVP2,2013-04-19 12:11:00,
2013-04-19 05:16:00,43.3,40.0,30.19,NNW,348,0.0,0.0,88,0.00,,,0.00,WUHU216DAVISVP2,2013-04-19 12:16:00,
2013-04-19 05:21:00,43.3,40.2,30.19,NNW,348,0.0,0.0,89,0.00,,,0.00,WUHU216DAVISVP2,2013-04-19 12:21:00,
2013-04-19 05:26:00,43.4,40.3,30.19,NNW,348,0.0,0.0,89,0.00,,,0.00,WUHU216DAVISVP2,2013-04-19 12:26:00,
2013-04-19 05:31:00,43.2,39.9,30.19,NNW,348,0.0,1.0,88,0.00,,,0.00,WUHU216DAVISVP2,2013-04-19 12:31:00,
2013-04-19 05:36:00,43.0,39.7,30.20,NNW,348,0.0,1.0,88,0.00,,,0.00,WUHU216DAVISVP2,2013-04-19 12:36:00,
2013-04-19 05:41:00,43.0,39.9,30.20,NNW,348,0.0,0.0,89,0.00,,,0.00,WUHU216DAVISVP2,2013-04-19 12:41:00,
2013-04-19 05:46:00,42.9,39.8,30.20,NNW,348,0.0,0.0,89,0.00,,,0.00,WUHU216DAVISVP2,2013-04-19 12:46:00,
2013-04-19 05:51:00,43.0,39.9,30.20,NNW,348,0.0,1.0,89,0.00,,,0.00,WUHU216DAVISVP2,2013-04-19 12:51:00,
2013-04-19 05:56:00,43.3,40.0,30.21,NNW,348,0.0,2.0,88,0.00,,,0.00,WUHU216DAVISVP2,2013-04-19 12:56:00,
2013-04-19 06:01:00,43.3,39.7,30.20,NNW,348,0.0,2.0,87,0.00,,,0.00,WUHU216DAVISVP2,2013-04-19 13:01:00,
2013-04-19 06:06:00,43.1,39.5,30.20,NNW,348,0.0,2.0,87,0.00,,,0.00,WUHU216DAVISVP2,2013-04-19 13:06:00,
2013-04-19 06:11:00,42.7,39.1,30.21,NNW,348,0.0,1.0,87,0.00,,,0.00,WUHU216DAVISVP2,2013-04-19 13:11:00,
2013-04-19 06:16:00,42.9,39.3,30.21,NNW,348,0.0,2.0,87,0.00,,,0.00,WUHU216DAVISVP2,2013-04-19 13:16:00,
2013-04-19 06:21:00,43.3,39.4,30.22,NNW,348,1.0,2.0,86,0.00,,,0.00,WUHU216DAVISVP2,2013-04-19 13:21:00,
2013-04-19 06:26:00,43.6,39.7,30.22,NNW,348,0.0,2.0,86,0.00,,,0.00,WUHU216DAVISVP2,2013-04-19 13:26:00,
2013-04-19 06:31:00,43.6,39.4,30.22,NNW,348,0.0,2.0,85,0.00,,,0.00,WUHU216DAVISVP2,2013-04-19 13:31:00,
2013-04-19 06:36:00,43.4,39.2,30.22,NNW,348,0.0,1.0,85,0.00,,,0.00,WUHU216DAVISVP2,2013-04-19 13:36:00,
2013-04-19 06:41:00,43.5,39.3,30.22,NNW,348,0.0,1.0,85,0.00,,,0.00,WUHU216DAVISVP2,2013-04-19 13:41:00,
2013-04-19 06:46:00,43.4,39.2,30.22,NNW,348,0.0,1.0,85,0.00,,,0.00,WUHU216DAVISVP2,2013-04-19 13:46:00,
2013-04-19 06:51:00,43.5,39.3,30.23,NNW,348,1.0,2.0,85,0.00,,,0.00,WUHU216DAVISVP2,2013-04-19 13:51:00,
2013-04-19 06:56:00,43.6,39.7,30.23,NNW,348,0.0,2.0,86,0.00,,,0.00,WUHU216DAVISVP2,2013-04-19 13:56:00,
2013-04-19 07:01:00,43.8,39.6,30.23,NNW,348,0.0,0.0,85,0.00,,,0.00,WUHU216DAVISVP2,2013-04-19 14:01:00,
2013-04-19 07:06:00,44.4,40.2,30.23,NNW,348,0.0,1.0,85,0.00,,,0.00,WUHU216DAVISVP2,2013-04-19 14:06:00,
2013-04-19 07:11:00,44.9,40.4,30.23,NNW,348,0.0,1.0,84,0.00,,,0.00,WUHU216DAVISVP2,2013-04-19 14:11:00,
2013-04-19 07:16:00,45.7,40.5,30.23,NNW,348,2.0,2.0,82,0.00,,,0.00,WUHU216DAVISVP2,2013-04-19 14:16:00,
2013-04-19 07:21:00,46.7,40.9,30.23,East,90,0.0,5.0,80,0.00,,,0.00,WUHU216DAVISVP2,2013-04-19 14:21:00,
2013-04-19 07:26:00,47.5,41.0,30.23,East,90,0.0,5.0,78,0.00,,,0.00,WUHU216DAVISVP2,2013-04-19 14:26:00,
2013-04-19 07:31:00,47.8,41.0,30.23,SE,136,4.0,5.0,77,0.00,,,0.00,WUHU216DAVISVP2,2013-04-19 14:31:00,
2013-04-19 07:36:00,48.5,41.0,30.23,SE,139,0.0,5.0,75,0.00,,,0.00,WUHU216DAVISVP2,2013-04-19 14:36:00,
2013-04-19 07:41:00,49.1,42.3,30.23,SE,140,2.0,5.0,77,0.00,,,0.00,WUHU216DAVISVP2,2013-04-19 14:41:00,
2013-04-19 07:46:00,49.6,41.0,30.24,SE,130,4.0,6.0,72,0.00,,,0.00,WUHU216DAVISVP2,2013-04-19 14:46:00,
2013-04-19 07:51:00,49.7,40.8,30.23,SE,146,4.0,7.0,71,0.00,,,0.00,WUHU216DAVISVP2,2013-04-19 14:51:00,
2013-04-19 07:56:00,50.1,41.2,30.24,SE,134,0.0,7.0,71,0.00,,,0.00,WUHU216DAVISVP2,2013-04-19 14:56:00,
2013-04-19 08:01:00,50.5,41.2,30.24,SE,134,0.0,6.0,70,0.00,,,0.00,WUHU216DAVISVP2,2013-04-19 15:01:00,
2013-04-19 08:06:00,51.0,41.3,30.24,SE,134,0.0,4.0,69,0.00,,,0.00,WUHU216DAVISVP2,2013-04-19 15:06:00,
2013-04-19 08:11:00,51.5,41.4,30.24,SE,134,0.0,4.0,68,0.00,,,0.00,WUHU216DAVISVP2,2013-04-19 15:11:00,
2013-04-19 08:16:00,51.9,42.2,30.24,SE,134,0.0,5.0,69,0.00,,,0.00,WUHU216DAVISVP2,2013-04-19 15:16:00,
2013-04-19 08:21:00,52.5,42.4,30.24,SE,134,4.0,5.0,68,0.00,,,0.00,WUHU216DAVISVP2,2013-04-19 15:21:00,
2013-04-19 08:26:00,53.3,43.1,30.24,SE,134,0.0,5.0,68,0.00,,,0.00,WUHU216DAVISVP2,2013-04-19 15:26:00,
2013-04-19 08:31:00,54.2,42.8,30.23,SE,134,0.0,5.0,65,0.00,,,0.00,WUHU216DAVISVP2,2013-04-19 15:31:00,
2013-04-19 08:36:00,55.0,43.2,30.23,SE,134,0.0,4.0,64,0.00,,,0.00,WUHU216DAVISVP2,2013-04-19 15:36:00,
2013-04-19 08:41:00,55.6,43.7,30.23,SE,134,0.0,4.0,64,0.00,,,0.00,WUHU216DAVISVP2,2013-04-19 15:41:00,
2013-04-19 08:46:00,56.7,43.5,30.23,SE,134,0.0,1.0,61,0.00,,,0.00,WUHU216DAVISVP2,2013-04-19 15:46:00,
2013-04-19 08:51:00,57.6,43.5,30.23,SE,133,0.0,1.0,59,0.00,,,0.00,WUHU216DAVISVP2,2013-04-19 15:51:00,
2013-04-19 08:56:00,58.5,44.8,30.23,SE,133,0.0,1.0,60,0.00,,,0.00,WUHU216DAVISVP2,2013-04-19 15:56:00,
2013-04-19 09:01:00,58.9,44.3,30.23,SE,133,0.0,2.0,58,0.00,,,0.00,WUHU216DAVISVP2,2013-04-19 16:01:00,
2013-04-19 09:06:00,60.0,44.8,30.23,SE,134,5.0,5.0,57,0.00,,,0.00,WUHU216DAVISVP2,2013-04-19 16:06:00,
2013-04-19 09:11:00,60.9,43.2,30.23,SE,133,0.0,5.0,52,0.00,,,0.00,WUHU216DAVISVP2,2013-04-19 16:11:00,
2013-04-19 09:16:00,61.1,43.4,30.24,SSE,153,0.0,6.0,52,0.00,,,0.00,WUHU216DAVISVP2,2013-04-19 16:16:00,
2013-04-19 09:21:00,61.8,43.0,30.24,SSE,153,0.0,6.0,50,0.00,,,0.00,WUHU216DAVISVP2,2013-04-19 16:21:00,
2013-04-19 09:26:00,61.9,42.5,30.23,SSE,153,0.0,4.0,49,0.00,,,0.00,WUHU216DAVISVP2,2013-04-19 16:26:00,
2013-04-19 09:31:00,62.2,42.2,30.23,SSW,200,5.0,5.0,48,0.00,,,0.00,WUHU216DAVISVP2,2013-04-19 16:31:00,
2013-04-19 09:36:00,63.1,41.9,30.23,SSW,200,0.0,5.0,46,0.00,,,0.00,WUHU216DAVISVP2,2013-04-19 16:36:00,
2013-04-19 09:41:00,63.8,42.6,30.23,SSW,200,0.0,5.0,46,0.00,,,0.00,WUHU216DAVISVP2,2013-04-19 16:41:00,
2013-04-19 09:46:00,65.3,42.8,30.23,SSE,153,2.0,6.0,44,0.00,,,0.00,WUHU216DAVISVP2,2013-04-19 16:46:00,
2013-04-19 09:51:00,65.2,42.7,30.23,South,171,4.0,6.0,44,0.00,,,0.00,WUHU216DAVISVP2,2013-04-19 16:51:00,
2013-04-19 09:56:00,65.9,42.7,30.23,SSE,161,0.0,6.0,43,0.00,,,0.00,WUHU216DAVISVP2,2013-04-19 16:56:00,
2013-04-19 10:01:00,66.9,43.6,30.23,SSE,160,0.0,5.0,43,0.00,,,0.00,WUHU216DAVISVP2,2013-04-19 17:01:00,
2013-04-19 10:06:00,67.2,43.9,30.23,SSE,160,5.0,5.0,43,0.00,,,0.00,WUHU216DAVISVP2,2013-04-19 17:06:00,
2013-04-19 10:11:00,66.8,44.1,30.23,SSE,159,0.0,5.0,44,0.00,,,0.00,WUHU216DAVISVP2,2013-04-19 17:11:00,
2013-04-19 10:16:00,68.2,42.2,30.23,SSE,159,0.0,5.0,39,0.00,,,0.00,WUHU216DAVISVP2,2013-04-19 17:16:00,
2013-04-19 10:21:00,67.7,42.4,30.22,SSE,159,0.0,5.0,40,0.00,,,0.00,WUHU216DAVISVP2,2013-04-19 17:21:00,
2013-04-19 10:26:00,68.8,42.7,30.22,South,169,0.0,1.0,39,0.00,,,0.00,WUHU216DAVISVP2,2013-04-19 17:26:00,
2013-04-19 10:31:00,69.7,42.8,30.22,SSE,158,0.0,4.0,38,0.00,,,0.00,WUHU216DAVISVP2,2013-04-19 17:31:00,
2013-04-19 10:36:00,70.2,41.8,30.23,SSE,158,0.0,4.0,36,0.00,,,0.00,WUHU216DAVISVP2,2013-04-19 17:36:00,
2013-04-19 10:41:00,68.8,41.3,30.23,SSE,158,0.0,1.0,37,0.00,,,0.00,WUHU216DAVISVP2,2013-04-19 17:41:00,
2013-04-19 10:46:00,69.0,42.9,30.23,SSE,158,0.0,4.0,39,0.00,,,0.00,WUHU216DAVISVP2,2013-04-19 17:46:00,
2013-04-19 10:51:00,70.6,41.4,30.22,South,169,0.0,4.0,35,0.00,,,0.00,WUHU216DAVISVP2,2013-04-19 17:51:00,
2013-04-19 10:56:00,70.7,43.0,30.22,SSE,164,0.0,4.0,37,0.00,,,0.00,WUHU216DAVISVP2,2013-04-19 17:56:00,
2013-04-19 11:01:00,70.7,41.5,30.22,SSE,164,0.0,1.0,35,0.00,,,0.00,WUHU216DAVISVP2,2013-04-19 18:01:00,
2013-04-19 11:06:00,71.4,43.6,30.22,SSE,164,0.0,1.0,37,0.00,,,0.00,WUHU216DAVISVP2,2013-04-19 18:06:00,
2013-04-19 11:11:00,71.6,42.3,30.22,SSE,166,0.0,5.0,35,0.00,,,0.00,WUHU216DAVISVP2,2013-04-19 18:11:00,
2013-04-19 11:16:00,71.9,41.0,30.22,SSE,167,0.0,5.0,33,0.00,,,0.00,WUHU216DAVISVP2,2013-04-19 18:16:00,
2013-04-19 11:21:00,72.4,40.7,30.22,SSE,166,0.0,1.0,32,0.00,,,0.00,WUHU216DAVISVP2,2013-04-19 18:21:00,
2013-04-19 11:26:00,73.7,42.6,30.22,SSE,166,0.0,1.0,33,0.00,,,0.00,WUHU216DAVISVP2,2013-04-19 18:26:00,
2013-04-19 11:31:00,72.2,38.9,30.22,NNW,334,2.0,5.0,30,0.00,,,0.00,WUHU216DAVISVP2,2013-04-19 18:31:00,
2013-04-19 11:36:00,73.1,39.6,30.21,NNW,334,0.0,5.0,30,0.00,,,0.00,WUHU216DAVISVP2,2013-04-19 18:36:00,
2013-04-19 11:41:00,74.0,41.3,30.21,NNW,331,3.0,4.0,31,0.00,,,0.00,WUHU216DAVISVP2,2013-04-19 18:41:00,
2013-04-19 11:46:00,73.6,39.4,30.21,NNW,332,0.0,5.0,29,0.00,,,0.00,WUHU216DAVISVP2,2013-04-19 18:46:00,
2013-04-19 11:51:00,73.9,38.7,30.21,NNW,332,0.0,5.0,28,0.00,,,0.00,WUHU216DAVISVP2,2013-04-19 18:51:00,
2013-04-19 11:56:00,74.8,41.3,30.21,East,92,0.0,4.0,30,0.00,,,0.00,WUHU216DAVISVP2,2013-04-19 18:56:00,
2013-04-19 12:01:00,74.4,41.8,30.20,North,355,3.0,4.0,31,0.00,,,0.00,WUHU216DAVISVP2,2013-04-19 19:01:00,
2013-04-19 12:06:00,74.4,41.8,30.20,West,279,0.0,6.0,31,0.00,,,0.00,WUHU216DAVISVP2,2013-04-19 19:06:00,
2013-04-19 12:11:00,75.2,41.5,30.20,West,280,0.0,6.0,30,0.00,,,0.00,WUHU216DAVISVP2,2013-04-19 19:11:00,
2013-04-19 12:16:00,75.5,38.1,30.20,NNW,333,6.0,6.0,26,0.00,,,0.00,WUHU216DAVISVP2,2013-04-19 19:16:00,
2013-04-19 12:21:00,75.2,39.7,30.19,NNW,348,3.0,6.0,28,0.00,,,0.00,WUHU216DAVISVP2,2013-04-19 19:21:00,
2013-04-19 12:26:00,75.1,40.5,30.19,NW,325,6.0,6.0,29,0.00,,,0.00,WUHU216DAVISVP2,2013-04-19 19:26:00,
2013-04-19 12:31:00,75.7,38.3,30.19,West,274,5.0,6.0,26,0.00,,,0.00,WUHU216DAVISVP2,2013-04-19 19:31:00,
2013-04-19 12:36:00,75.8,38.3,30.18,West,279,0.0,6.0,26,0.00,,,0.00,WUHU216DAVISVP2,2013-04-19 19:36:00,
2013-04-19 12:41:00,76.2,41.5,30.18,SW,218,3.0,6.0,29,0.00,,,0.00,WUHU216DAVISVP2,2013-04-19 19:41:00,
2013-04-19 12:46:00,76.7,39.2,30.17,WNW,285,0.0,4.0,26,0.00,,,0.00,WUHU216DAVISVP2,2013-04-19 19:46:00,
2013-04-19 12:51:00,76.0,39.5,30.17,WNW,286,0.0,4.0,27,0.00,,,0.00,WUHU216DAVISVP2,2013-04-19 19:51:00,
2013-04-19 12:56:00,75.8,40.2,30.17,North,349,5.0,5.0,28,0.00,,,0.00,WUHU216DAVISVP2,2013-04-19 19:56:00,
2013-04-19 13:01:00,76.4,42.5,30.16,North,349,0.0,7.0,30,0.00,,,0.00,WUHU216DAVISVP2,2013-04-19 20:01:00,
2013-04-19 13:06:00,76.5,39.9,30.16,NW,326,1.0,7.0,27,0.00,,,0.00,WUHU216DAVISVP2,2013-04-19 20:06:00,
2013-04-19 13:11:00,76.0,39.5,30.16,NNW,327,0.0,5.0,27,0.00,,,0.00,WUHU216DAVISVP2,2013-04-19 20:11:00,
2013-04-19 13:16:00,76.3,41.5,30.16,NNW,329,0.0,4.0,29,0.00,,,0.00,WUHU216DAVISVP2,2013-04-19 20:16:00,
2013-04-19 13:21:00,77.0,42.3,30.16,NW,319,1.0,8.0,29,0.00,,,0.00,WUHU216DAVISVP2,2013-04-19 20:21:00,
2013-04-19 13:26:00,77.2,42.5,30.16,NNW,340,0.0,8.0,29,0.00,,,0.00,WUHU216DAVISVP2,2013-04-19 20:26:00,
2013-04-19 13:31:00,77.8,42.1,30.15,North,355,0.0,8.0,28,0.00,,,0.00,WUHU216DAVISVP2,2013-04-19 20:31:00,
2013-04-19 13:36:00,77.7,41.0,30.15,NNE,14,0.0,8.0,27,0.00,,,0.00,WUHU216DAVISVP2,2013-04-19 20:36:00,
2013-04-19 13:41:00,78.1,39.3,30.15,NW,324,0.0,5.0,25,0.00,,,0.00,WUHU216DAVISVP2,2013-04-19 20:41:00,
2013-04-19 13:46:00,78.7,41.8,30.15,NE,38,5.0,5.0,27,0.00,,,0.00,WUHU216DAVISVP2,2013-04-19 20:46:00,
2013-04-19 13:51:00,78.9,39.0,30.15,NE,51,0.0,6.0,24,0.00,,,0.00,WUHU216DAVISVP2,2013-04-19 20:51:00,
2013-04-19 13:56:00,78.2,39.4,30.14,North,351,1.0,7.0,25,0.00,,,0.00,WUHU216DAVISVP2,2013-04-19 20:56:00,
2013-04-19 14:01:00,78.6,40.7,30.14,NW,321,7.0,7.0,26,0.00,,,0.00,WUHU216DAVISVP2,2013-04-19 21:01:00,
2013-04-19 14:06:00,78.4,39.6,30.14,NW,316,4.0,10.0,25,0.00,,,0.00,WUHU216DAVISVP2,2013-04-19 21:06:00,
2013-04-19 14:11:00,78.8,41.0,30.14,NNW,344,0.0,10.0,26,0.00,,,0.00,WUHU216DAVISVP2,2013-04-19 21:11:00,
2013-04-19 14:16:00,78.1,40.4,30.13,WNW,301,0.0,7.0,26,0.00,,,0.00,WUHU216DAVISVP2,2013-04-19 21:16:00,
2013-04-19 14:21:00,78.9,42.1,30.13,NNW,346,3.0,7.0,27,0.00,,,0.00,WUHU216DAVISVP2,2013-04-19 21:21:00,
2013-04-19 14:26:00,78.5,39.7,30.13,NNW,333,3.0,9.0,25,0.00,,,0.00,WUHU216DAVISVP2,2013-04-19 21:26:00,
2013-04-19 14:31:00,78.9,40.0,30.13,North,355,0.0,9.0,25,0.00,,,0.00,WUHU216DAVISVP2,2013-04-19 21:31:00,
2013-04-19 14:36:00,78.8,39.9,30.13,NNW,332,0.0,6.0,25,0.00,,,0.00,WUHU216DAVISVP2,2013-04-19 21:36:00,
2013-04-19 14:41:00,79.7,40.7,30.12,WNW,301,1.0,9.0,25,0.00,,,0.00,WUHU216DAVISVP2,2013-04-19 21:41:00,
2013-04-19 14:46:00,80.1,42.0,30.12,NNW,346,7.0,9.0,26,0.00,,,0.00,WUHU216DAVISVP2,2013-04-19 21:46:00,
2013-04-19 14:51:00,79.7,41.7,30.12,NNW,348,6.0,9.0,26,0.00,,,0.00,WUHU216DAVISVP2,2013-04-19 21:51:00,
2013-04-19 14:56:00,80.2,43.1,30.11,North,355,1.0,9.0,27,0.00,,,0.00,WUHU216DAVISVP2,2013-04-19 21:56:00,
2013-04-19 15:01:00,80.5,41.3,30.11,NW,309,0.0,6.0,25,0.00,,,0.00,WUHU216DAVISVP2,2013-04-19 22:01:00,
2013-04-19 15:06:00,79.8,40.7,30.11,WNW,282,1.0,6.0,25,0.00,,,0.00,WUHU216DAVISVP2,2013-04-19 22:06:00,
2013-04-19 15:11:00,80.5,40.3,30.10,NNW,333,1.0,12.0,24,0.00,,,0.00,WUHU216DAVISVP2,2013-04-19 22:11:00,
2013-04-19 15:16:00,80.0,41.9,30.10,NNW,346,3.0,12.0,26,0.00,,,0.00,WUHU216DAVISVP2,2013-04-19 22:16:00,
2013-04-19 15:21:00,80.1,41.0,30.10,NW,305,3.0,9.0,25,0.00,,,0.00,WUHU216DAVISVP2,2013-04-19 22:21:00,
2013-04-19 15:26:00,80.1,40.0,30.10,NW,311,3.0,10.0,24,0.00,,,0.00,WUHU216DAVISVP2,2013-04-19 22:26:00,
2013-04-19 15:31:00,79.8,40.7,30.09,WNW,287,0.0,10.0,25,0.00,,,0.00,WUHU216DAVISVP2,2013-04-19 22:31:00,
2013-04-19 15:36:00,80.9,40.6,30.09,NNW,342,6.0,9.0,24,0.00,,,0.00,WUHU216DAVISVP2,2013-04-19 22:36:00,
2013-04-19 15:41:00,80.7,40.5,30.09,NW,309,10.0,11.0,24,0.00,,,0.00,WUHU216DAVISVP2,2013-04-19 22:41:00,
2013-04-19 15:46:00,80.6,40.4,30.08,NE,35,3.0,11.0,24,0.00,,,0.00,WUHU216DAVISVP2,2013-04-19 22:46:00,
2013-04-19 15:51:00,80.9,41.7,30.08,NNW,329,0.0,9.0,25,0.00,,,0.00,WUHU216DAVISVP2,2013-04-19 22:51:00,
2013-04-19 15:56:00,80.4,41.3,30.08,North,5,1.0,7.0,25,0.00,,,0.00,WUHU216DAVISVP2,2013-04-19 22:56:00,
2013-04-19 16:01:00,80.7,41.5,30.08,North,355,0.0,7.0,25,0.00,,,0.00,WUHU216DAVISVP2,2013-04-19 23:01:00,
2013-04-19 16:06:00,81.1,40.8,30.07,North,5,9.0,10.0,24,0.00,,,0.00,WUHU216DAVISVP2,2013-04-19 23:06:00,
2013-04-19 16:11:00,80.9,41.7,30.07,NNW,341,4.0,10.0,25,0.00,,,0.00,WUHU216DAVISVP2,2013-04-19 23:11:00,
2013-04-19 16:16:00,80.5,40.3,30.07,NW,319,3.0,9.0,24,0.00,,,0.00,WUHU216DAVISVP2,2013-04-19 23:16:00,
2013-04-19 16:21:00,81.4,43.1,30.07,NNW,348,5.0,10.0,26,0.00,,,0.00,WUHU216DAVISVP2,2013-04-19 23:21:00,
2013-04-19 16:26:00,80.8,42.6,30.07,NW,326,4.0,10.0,26,0.00,,,0.00,WUHU216DAVISVP2,2013-04-19 23:26:00,
2013-04-19 16:31:00,80.9,42.7,30.06,NNE,21,1.0,9.0,26,0.00,,,0.00,WUHU216DAVISVP2,2013-04-19 23:31:00,
2013-04-19 16:36:00,81.0,40.7,30.06,NW,323,7.0,9.0,24,0.00,,,0.00,WUHU216DAVISVP2,2013-04-19 23:36:00,
2013-04-19 16:41:00,80.7,39.4,30.06,NW,304,2.0,9.0,23,0.00,,,0.00,WUHU216DAVISVP2,2013-04-19 23:41:00,
2013-04-19 16:46:00,81.0,40.8,30.06,NW,307,10.0,10.0,24,0.00,,,0.00,WUHU216DAVISVP2,2013-04-19 23:46:00,
2013-04-19 16:51:00,80.8,39.5,30.06,North,355,3.0,10.0,23,0.00,,,0.00,WUHU216DAVISVP2,2013-04-19 23:51:00,
2013-04-19 16:56:00,80.6,41.4,30.05,NNW,344,3.0,10.0,25,0.00,,,0.00,WUHU216DAVISVP2,2013-04-19 23:56:00,
2013-04-19 17:01:00,80.9,40.6,30.05,NNW,329,4.0,9.0,24,0.00,,,0.00,WUHU216DAVISVP2,2013-04-20 00:01:00,
2013-04-19 17:06:00,80.6,41.4,30.05,NNW,333,8.0,9.0,25,0.00,,,0.00,WUHU216DAVISVP2,2013-04-20 00:06:00,
2013-04-19 17:11:00,80.3,40.1,30.05,NNE,15,3.0,11.0,24,0.00,,,0.00,WUHU216DAVISVP2,2013-04-20 00:11:00,
2013-04-19 17:16:00,80.3,40.2,30.05,NNW,329,7.0,11.0,24,0.00,,,0.00,WUHU216DAVISVP2,2013-04-20 00:16:00,
2013-04-19 17:21:00,80.3,43.3,30.05,NNW,329,7.0,11.0,27,0.00,,,0.00,WUHU216DAVISVP2,2013-04-20 00:21:00,
2013-04-19 17:26:00,80.2,43.1,30.04,NNW,340,0.0,11.0,27,0.00,,,0.00,WUHU216DAVISVP2,2013-04-20 00:26:00,
2013-04-19 17:31:00,80.2,44.0,30.04,NW,324,7.0,8.0,28,0.00,,,0.00,WUHU216DAVISVP2,2013-04-20 00:31:00,
2013-04-19 17:36:00,80.2,43.1,30.04,North,5,5.0,9.0,27,0.00,,,0.00,WUHU216DAVISVP2,2013-04-20 00:36:00,
2013-04-19 17:41:00,79.8,42.8,30.04,NNW,346,3.0,9.0,27,0.00,,,0.00,WUHU216DAVISVP2,2013-04-20 00:41:00,
2013-04-19 17:46:00,79.8,42.7,30.04,NNW,346,4.0,8.0,27,0.00,,,0.00,WUHU216DAVISVP2,2013-04-20 00:46:00,
2013-04-19 17:51:00,79.9,43.7,30.03,WNW,300,1.0,8.0,28,0.00,,,0.00,WUHU216DAVISVP2,2013-04-20 00:51:00,
2013-04-19 17:56:00,80.0,41.9,30.03,North,350,2.0,8.0,26,0.00,,,0.00,WUHU216DAVISVP2,2013-04-20 00:56:00,
2013-04-19 18:01:00,79.8,43.7,30.03,WNW,298,6.0,7.0,28,0.00,,,0.00,WUHU216DAVISVP2,2013-04-20 01:01:00,
2013-04-19 18:06:00,79.8,42.7,30.03,NNW,336,4.0,7.0,27,0.00,,,0.00,WUHU216DAVISVP2,2013-04-20 01:06:00,
2013-04-19 18:11:00,79.6,44.4,30.03,NNW,336,1.0,6.0,29,0.00,,,0.00,WUHU216DAVISVP2,2013-04-20 01:11:00,
2013-04-19 18:16:00,79.5,45.2,30.03,NNW,328,1.0,7.0,30,0.00,,,0.00,WUHU216DAVISVP2,2013-04-20 01:16:00,
2013-04-19 18:21:00,79.2,44.1,30.03,NNW,344,0.0,7.0,29,0.00,,,0.00,WUHU216DAVISVP2,2013-04-20 01:21:00,
2013-04-19 18:26:00,78.8,45.5,30.02,NNW,344,4.0,7.0,31,0.00,,,0.00,WUHU216DAVISVP2,2013-04-20 01:26:00,
2013-04-19 18:31:00,78.4,44.2,30.02,NNW,342,4.0,6.0,30,0.00,,,0.00,WUHU216DAVISVP2,2013-04-20 01:31:00,
2013-04-19 18:36:00,78.1,44.8,30.02,North,355,5.0,6.0,31,0.00,,,0.00,WUHU216DAVISVP2,2013-04-20 01:36:00,
2013-04-19 18:41:00,77.8,44.6,30.02,WNW,301,5.0,7.0,31,0.00,,,0.00,WUHU216DAVISVP2,2013-04-20 01:41:00,
2013-04-19 18:46:00,78.0,43.0,30.02,NNW,344,2.0,8.0,29,0.00,,,0.00,WUHU216DAVISVP2,2013-04-20 01:46:00,
2013-04-19 18:51:00,77.9,42.9,30.02,NNW,336,0.0,8.0,29,0.00,,,0.00,WUHU216DAVISVP2,2013-04-20 01:51:00,
2013-04-19 18:56:00,77.5,43.6,30.02,NW,320,0.0,8.0,30,0.00,,,0.00,WUHU216DAVISVP2,2013-04-20 01:56:00,
2013-04-19 19:01:00,77.1,43.3,30.01,NNW,333,0.0,6.0,30,0.00,,,0.00,WUHU216DAVISVP2,2013-04-20 02:01:00,
2013-04-19 19:06:00,76.7,42.9,30.01,NNW,333,1.0,6.0,30,0.00,,,0.00,WUHU216DAVISVP2,2013-04-20 02:06:00,
2013-04-19 19:11:00,76.5,42.7,30.01,NNW,335,0.0,5.0,30,0.00,,,0.00,WUHU216DAVISVP2,2013-04-20 02:11:00,
2013-04-19 19:16:00,76.1,43.3,30.01,NW,323,3.0,6.0,31,0.00,,,0.00,WUHU216DAVISVP2,2013-04-20 02:16:00,
2013-04-19 19:21:00,75.5,43.6,30.01,NNW,327,2.0,6.0,32,0.00,,,0.00,WUHU216DAVISVP2,2013-04-20 02:21:00,
2013-04-19 19:26:00,75.2,43.3,30.01,NNW,327,1.0,4.0,32,0.00,,,0.00,WUHU216DAVISVP2,2013-04-20 02:26:00,
2013-04-19 19:31:00,74.5,44.3,30.01,NNW,327,0.0,4.0,34,0.00,,,0.00,WUHU216DAVISVP2,2013-04-20 02:31:00,
2013-04-19 19:35:00,73.9,45.3,30.01,NNW,338,0.0,4.0,36,0.00,,,0.00,WUHU216DAVISVP2,2013-04-20 02:35:00,
2013-04-19 19:40:00,73.0,45.2,30.01,NNW,338,1.0,4.0,37,0.00,,,0.00,WUHU216DAVISVP2,2013-04-20 02:40:00,
2013-04-19 19:45:00,72.5,45.4,30.01,NNW,338,0.0,4.0,38,0.00,,,0.00,WUHU216DAVISVP2,2013-04-20 02:45:00,
2013-04-19 19:50:00,72.1,45.8,30.01,NNW,338,0.0,4.0,39,0.00,,,0.00,WUHU216DAVISVP2,2013-04-20 02:50:00,
2013-04-19 19:55:00,71.4,45.1,30.01,NNW,338,0.0,2.0,39,0.00,,,0.00,WUHU216DAVISVP2,2013-04-20 02:55:00,
2013-04-19 20:00:00,70.9,44.7,30.01,North,0,0.0,1.0,39,0.00,,,0.00,WUHU216DAVISVP2,2013-04-20 03:00:00,
2013-04-19 20:05:00,70.4,45.6,30.01,North,0,0.0,1.0,41,0.00,,,0.00,WUHU216DAVISVP2,2013-04-20 03:05:00,
2013-04-19 20:10:00,69.4,46.5,30.01,North,0,0.0,0.0,44,0.00,,,0.00,WUHU216DAVISVP2,2013-04-20 03:10:00,
2013-04-19 20:15:00,68.3,46.7,30.01,North,0,0.0,0.0,46,0.00,,,0.00,WUHU216DAVISVP2,2013-04-20 03:15:00,
2013-04-19 20:26:00,67.7,46.2,30.01,North,0,0.0,0.0,46,0.00,,,0.00,WUHU216DAVISVP2,2013-04-20 03:26:00,
2013-04-19 20:31:00,66.6,46.9,30.01,NNW,327,0.0,0.0,49,0.00,,,0.00,WUHU216DAVISVP2,2013-04-20 03:31:00,
2013-04-19 20:36:00,66.2,47.0,30.01,NNW,327,0.0,0.0,50,0.00,,,0.00,WUHU216DAVISVP2,2013-04-20 03:36:00,
2013-04-19 20:41:00,65.7,47.1,30.01,NNW,327,0.0,0.0,51,0.00,,,0.00,WUHU216DAVISVP2,2013-04-20 03:41:00,
2013-04-19 20:46:00,65.7,47.1,30.01,NNW,327,0.0,1.0,51,0.00,,,0.00,WUHU216DAVISVP2,2013-04-20 03:46:00,
2013-04-19 20:51:00,65.2,47.7,30.01,NNW,327,0.0,1.0,53,0.00,,,0.00,WUHU216DAVISVP2,2013-04-20 03:51:00,
2013-04-19 20:56:00,64.7,47.8,30.01,NNW,327,0.0,1.0,54,0.00,,,0.00,WUHU216DAVISVP2,2013-04-20 03:56:00,
2013-04-19 21:01:00,64.1,48.2,30.01,NNW,327,0.0,1.0,56,0.00,,,0.00,WUHU216DAVISVP2,2013-04-20 04:01:00,
2013-04-19 21:06:00,63.2,48.6,30.01,NNW,327,0.0,1.0,59,0.00,,,0.00,WUHU216DAVISVP2,2013-04-20 04:06:00,
2013-04-19 21:11:00,63.1,48.5,30.01,NNW,327,0.0,0.0,59,0.00,,,0.00,WUHU216DAVISVP2,2013-04-20 04:11:00,
2013-04-19 21:16:00,63.0,49.0,30.01,NNW,327,0.0,0.0,60,0.00,,,0.00,WUHU216DAVISVP2,2013-04-20 04:16:00,
2013-04-19 21:21:00,63.0,49.0,30.01,NNW,327,0.0,0.0,60,0.00,,,0.00,WUHU216DAVISVP2,2013-04-20 04:21:00,
2013-04-19 21:26:00,63.0,48.6,30.01,NNW,327,0.0,1.0,59,0.00,,,0.00,WUHU216DAVISVP2,2013-04-20 04:26:00,
2013-04-19 21:31:00,63.0,48.6,30.01,NNW,327,0.0,1.0,59,0.00,,,0.00,WUHU216DAVISVP2,2013-04-20 04:31:00,
2013-04-19 21:36:00,63.1,48.2,30.01,NNW,327,1.0,3.0,58,0.00,,,0.00,WUHU216DAVISVP2,2013-04-20 04:36:00,
2013-04-19 21:41:00,63.4,47.0,30.01,NNW,332,0.0,4.0,55,0.00,,,0.00,WUHU216DAVISVP2,2013-04-20 04:41:00,
2013-04-19 21:46:00,63.9,46.5,30.01,NNW,332,0.0,4.0,53,0.00,,,0.00,WUHU216DAVISVP2,2013-04-20 04:46:00,
2013-04-19 21:51:00,64.4,45.9,30.01,NNW,332,0.0,3.0,51,0.00,,,0.00,WUHU216DAVISVP2,2013-04-20 04:51:00,
2013-04-19 21:56:00,64.4,46.4,30.01,NNW,332,0.0,0.0,52,0.00,,,0.00,WUHU216DAVISVP2,2013-04-20 04:56:00,
2013-04-19 22:01:00,64.2,46.2,30.01,NNW,332,0.0,0.0,52,0.00,,,0.00,WUHU216DAVISVP2,2013-04-20 05:01:00,
2013-04-19 22:06:00,64.1,46.2,30.01,NNW,332,0.0,0.0,52,0.00,,,0.00,WUHU216DAVISVP2,2013-04-20 05:06:00,
2013-04-19 22:11:00,64.0,46.1,30.01,NNW,332,0.0,0.0,52,0.00,,,0.00,WUHU216DAVISVP2,2013-04-20 05:11:00,
2013-04-19 22:16:00,63.8,46.4,30.01,NNW,332,0.0,0.0,53,0.00,,,0.00,WUHU216DAVISVP2,2013-04-20 05:16:00,
2013-04-19 22:21:00,63.5,46.6,30.01,NNW,332,0.0,0.0,54,0.00,,,0.00,WUHU216DAVISVP2,2013-04-20 05:21:00,
2013-04-19 22:26:00,63.5,45.6,30.01,NNW,332,0.0,1.0,52,0.00,,,0.00,WUHU216DAVISVP2,2013-04-20 05:26:00,
2013-04-19 22:31:00,63.6,45.7,30.01,NNW,332,0.0,1.0,52,0.00,,,0.00,WUHU216DAVISVP2,2013-04-20 05:31:00,
2013-04-19 22:36:00,63.6,45.7,30.01,NNW,332,0.0,0.0,52,0.00,,,0.00,WUHU216DAVISVP2,2013-04-20 05:36:00,
2013-04-19 22:41:00,63.4,46.0,30.01,NNW,332,0.0,0.0,53,0.00,,,0.00,WUHU216DAVISVP2,2013-04-20 05:41:00,
2013-04-19 22:46:00,63.5,46.6,30.01,NNW,332,2.0,2.0,54,0.00,,,0.00,WUHU216DAVISVP2,2013-04-20 05:46:00,
2013-04-19 22:51:00,64.1,46.1,30.01,NNW,332,1.0,2.0,52,0.00,,,0.00,WUHU216DAVISVP2,2013-04-20 05:51:00,
2013-04-19 22:56:00,64.5,46.0,30.01,NW,326,1.0,3.0,51,0.00,,,0.00,WUHU216DAVISVP2,2013-04-20 05:56:00,
2013-04-19 23:01:00,64.8,46.3,30.01,NW,326,0.0,3.0,51,0.00,,,0.00,WUHU216DAVISVP2,2013-04-20 06:01:00,
2013-04-19 23:06:00,64.4,45.9,30.01,NW,326,0.0,2.0,51,0.00,,,0.00,WUHU216DAVISVP2,2013-04-20 06:06:00,
2013-04-19 23:11:00,63.8,45.9,30.01,NW,326,0.0,1.0,52,0.00,,,0.00,WUHU216DAVISVP2,2013-04-20 06:11:00,
2013-04-19 23:16:00,63.0,46.2,30.01,NW,326,0.0,0.0,54,0.00,,,0.00,WUHU216DAVISVP2,2013-04-20 06:16:00,
2013-04-19 23:21:00,62.0,46.2,30.01,NW,326,0.0,0.0,56,0.00,,,0.00,WUHU216DAVISVP2,2013-04-20 06:21:00,
2013-04-19 23:26:00,61.9,46.1,30.01,NW,326,0.0,1.0,56,0.00,,,0.00,WUHU216DAVISVP2,2013-04-20 06:26:00,
2013-04-19 23:31:00,62.1,46.2,30.01,NW,326,0.0,3.0,56,0.00,,,0.00,WUHU216DAVISVP2,2013-04-20 06:31:00,
2013-04-19 23:36:00,62.0,46.1,30.01,NW,326,0.0,3.0,56,0.00,,,0.00,WUHU216DAVISVP2,2013-04-20 06:36:00,
2013-04-19 23:41:00,61.9,46.5,30.01,NW,326,0.0,3.0,57,0.00,,,0.00,WUHU216DAVISVP2,2013-04-20 06:41:00,
2013-04-19 23:46:00,61.9,46.5,30.01,NW,326,0.0,3.0,57,0.00,,,0.00,WUHU216DAVISVP2,2013-04-20 06:46:00,
2013-04-19 23:51:00,62.4,46.0,30.01,NW,326,0.0,3.0,55,0.00,,,0.00,WUHU216DAVISVP2,2013-04-20 06:51:00,
2013-04-19 23:56:00,62.5,46.2,30.01,NW,326,2.0,4.0,55,0.00,,,0.00,WUHU216DAVISVP2,2013-04-20 06:56:00,